sensor_id;sensor_type;location;lat;lon;timestamp;pressure;altitude;pressure_sealevel;temperature;humidity
26083;BME280;13848;49.018;12.078;2023-02-17T00:00:50;98584.34;;;-0.33;96.42
26083;BME280;13848;49.018;12.078;2023-02-17T00:03:16;98581.34;;;-0.19;96.25
26083;BME280;13848;49.018;12.078;2023-02-17T00:05:43;98583.84;;;-0.27;96.31
26083;BME280;13848;49.018;12.078;2023-02-17T00:08:09;98582.78;;;-0.36;96.43
26083;BME280;13848;49.018;12.078;2023-02-17T00:10:35;98588.09;;;-0.36;96.99
26083;BME280;13848;49.018;12.078;2023-02-17T00:13:01;98583.44;;;-0.22;95.59
26083;BME280;13848;49.018;12.078;2023-02-17T00:15:27;98579.69;;;-0.20;95.44
26083;BME280;13848;49.018;12.078;2023-02-17T00:17:53;98573.09;;;-0.25;95.18
26083;BME280;13848;49.018;12.078;2023-02-17T00:20:19;98563.38;;;-0.15;95.93
26083;BME280;13848;49.018;12.078;2023-02-17T00:22:46;98564.91;;;-0.22;95.90
26083;BME280;13848;49.018;12.078;2023-02-17T00:25:12;98564.44;;;-0.28;95.81
26083;BME280;13848;49.018;12.078;2023-02-17T00:27:38;98560.91;;;-0.38;95.78
26083;BME280;13848;49.018;12.078;2023-02-17T00:30:05;98567.94;;;-0.48;95.99
26083;BME280;13848;49.018;12.078;2023-02-17T00:32:31;98561.50;;;-0.55;96.53
26083;BME280;13848;49.018;12.078;2023-02-17T00:34:57;98576.34;;;-0.43;96.48
26083;BME280;13848;49.018;12.078;2023-02-17T00:37:23;98574.91;;;-0.47;96.68
26083;BME280;13848;49.018;12.078;2023-02-17T00:39:50;98582.16;;;-0.49;96.20
26083;BME280;13848;49.018;12.078;2023-02-17T00:42:16;98577.56;;;-0.47;96.42
26083;BME280;13848;49.018;12.078;2023-02-17T00:44:42;98579.91;;;-0.33;96.93
26083;BME280;13848;49.018;12.078;2023-02-17T00:47:08;98582.25;;;-0.30;96.87
26083;BME280;13848;49.018;12.078;2023-02-17T00:49:34;98589.31;;;-0.19;96.36
26083;BME280;13848;49.018;12.078;2023-02-17T00:52:00;98579.97;;;-0.23;95.75
26083;BME280;13848;49.018;12.078;2023-02-17T00:54:26;98579.28;;;-0.15;95.93
26083;BME280;13848;49.018;12.078;2023-02-17T00:56:54;98577.97;;;0.00;95.98
26083;BME280;13848;49.018;12.078;2023-02-17T00:59:20;98578.28;;;0.07;95.17
26083;BME280;13848;49.018;12.078;2023-02-17T01:01:47;98581.31;;;0.02;94.39
26083;BME280;13848;49.018;12.078;2023-02-17T01:04:12;98576.81;;;-0.07;95.39
26083;BME280;13848;49.018;12.078;2023-02-17T01:06:39;98574.69;;;-0.13;95.74
26083;BME280;13848;49.018;12.078;2023-02-17T01:09:07;98567.75;;;-0.05;95.25
26083;BME280;13848;49.018;12.078;2023-02-17T01:11:34;98564.97;;;-0.03;95.76
26083;BME280;13848;49.018;12.078;2023-02-17T01:14:03;98556.72;;;-0.10;95.76
26083;BME280;13848;49.018;12.078;2023-02-17T01:16:32;98558.34;;;-0.18;95.24
26083;BME280;13848;49.018;12.078;2023-02-17T01:19:02;98546.66;;;-0.06;96.06
26083;BME280;13848;49.018;12.078;2023-02-17T01:21:29;98552.69;;;-0.04;95.47
26083;BME280;13848;49.018;12.078;2023-02-17T01:23:57;98548.53;;;0.03;94.95
26083;BME280;13848;49.018;12.078;2023-02-17T01:26:25;98553.31;;;-0.21;95.44
26083;BME280;13848;49.018;12.078;2023-02-17T01:28:52;98547.19;;;-0.12;95.88
26083;BME280;13848;49.018;12.078;2023-02-17T01:31:20;98543.50;;;0.00;94.94
26083;BME280;13848;49.018;12.078;2023-02-17T01:33:48;98550.06;;;0.06;94.44
26083;BME280;13848;49.018;12.078;2023-02-17T01:36:17;98549.66;;;0.01;94.83
26083;BME280;13848;49.018;12.078;2023-02-17T01:38:43;98550.19;;;-0.06;95.35
26083;BME280;13848;49.018;12.078;2023-02-17T01:41:10;98547.13;;;-0.01;95.73
26083;BME280;13848;49.018;12.078;2023-02-17T01:43:36;98548.75;;;-0.10;95.73
26083;BME280;13848;49.018;12.078;2023-02-17T01:46:11;98549.44;;;-0.17;95.19
26083;BME280;13848;49.018;12.078;2023-02-17T01:48:41;98545.00;;;-0.07;95.76
26083;BME280;13848;49.018;12.078;2023-02-17T01:51:13;98548.38;;;0.05;94.82
26083;BME280;13848;49.018;12.078;2023-02-17T01:53:43;98544.38;;;0.10;95.32
26083;BME280;13848;49.018;12.078;2023-02-17T01:56:12;98546.66;;;-0.06;95.26
26083;BME280;13848;49.018;12.078;2023-02-17T01:58:43;98536.06;;;-0.06;95.09
26083;BME280;13848;49.018;12.078;2023-02-17T02:01:11;98522.69;;;-0.05;95.85
26083;BME280;13848;49.018;12.078;2023-02-17T02:03:39;98520.75;;;-0.03;94.96
26083;BME280;13848;49.018;12.078;2023-02-17T02:06:10;98515.91;;;-0.28;96.13
26083;BME280;13848;49.018;12.078;2023-02-17T02:08:37;98512.59;;;-0.20;96.77
26083;BME280;13848;49.018;12.078;2023-02-17T02:11:07;98517.94;;;-0.11;96.79
26083;BME280;13848;49.018;12.078;2023-02-17T02:13:33;98514.59;;;-0.03;95.66
26083;BME280;13848;49.018;12.078;2023-02-17T02:16:04;98503.16;;;-0.04;96.07
26083;BME280;13848;49.018;12.078;2023-02-17T02:18:48;98500.13;;;0.01;95.69
26083;BME280;13848;49.018;12.078;2023-02-17T02:21:48;98500.66;;;-0.05;95.47
26083;BME280;13848;49.018;12.078;2023-02-17T02:24:29;98485.72;;;-0.06;95.28
26083;BME280;13848;49.018;12.078;2023-02-17T02:27:23;98486.69;;;-0.07;95.74
26083;BME280;13848;49.018;12.078;2023-02-17T02:30:16;98476.91;;;-0.16;95.95
26083;BME280;13848;49.018;12.078;2023-02-17T02:32:56;98469.16;;;0.02;96.16
26083;BME280;13848;49.018;12.078;2023-02-17T02:35:30;98473.28;;;-0.15;96.14
26083;BME280;13848;49.018;12.078;2023-02-17T02:38:01;98464.69;;;0.02;95.37
26083;BME280;13848;49.018;12.078;2023-02-17T02:40:32;98469.69;;;0.05;95.38
26083;BME280;13848;49.018;12.078;2023-02-17T02:43:00;98464.69;;;0.02;95.82
26083;BME280;13848;49.018;12.078;2023-02-17T02:45:27;98466.75;;;-0.02;94.91
26083;BME280;13848;49.018;12.078;2023-02-17T02:47:56;98475.53;;;-0.01;95.97
26083;BME280;13848;49.018;12.078;2023-02-17T02:50:34;98467.16;;;-0.06;95.84
26083;BME280;13848;49.018;12.078;2023-02-17T02:53:23;98458.53;;;0.02;95.80
26083;BME280;13848;49.018;12.078;2023-02-17T02:55:58;98447.66;;;-0.05;96.05
26083;BME280;13848;49.018;12.078;2023-02-17T02:58:32;98456.03;;;0.00;96.36
26083;BME280;13848;49.018;12.078;2023-02-17T03:01:04;98458.53;;;0.02;95.89
26083;BME280;13848;49.018;12.078;2023-02-17T03:03:36;98464.09;;;-0.11;96.52
26083;BME280;13848;49.018;12.078;2023-02-17T03:06:15;98454.22;;;0.01;95.84
26083;BME280;13848;49.018;12.078;2023-02-17T03:08:46;98447.50;;;-0.04;95.81
26083;BME280;13848;49.018;12.078;2023-02-17T03:11:13;98453.50;;;-0.02;96.67
26083;BME280;13848;49.018;12.078;2023-02-17T03:13:40;98449.31;;;-0.04;96.75
26083;BME280;13848;49.018;12.078;2023-02-17T03:16:09;98450.16;;;-0.04;96.47
26083;BME280;13848;49.018;12.078;2023-02-17T03:18:36;98442.91;;;-0.11;96.39
26083;BME280;13848;49.018;12.078;2023-02-17T03:21:07;98449.69;;;-0.18;97.49
26083;BME280;13848;49.018;12.078;2023-02-17T03:23:37;98447.38;;;-0.02;97.45
26083;BME280;13848;49.018;12.078;2023-02-17T03:26:03;98462.47;;;0.07;97.03
26083;BME280;13848;49.018;12.078;2023-02-17T03:28:29;98441.81;;;0.20;96.63
26083;BME280;13848;49.018;12.078;2023-02-17T03:30:54;98433.13;;;-0.01;96.20
26083;BME280;13848;49.018;12.078;2023-02-17T03:33:20;98430.88;;;-0.15;96.99
26083;BME280;13848;49.018;12.078;2023-02-17T03:35:48;98430.59;;;-0.12;96.99
26083;BME280;13848;49.018;12.078;2023-02-17T03:38:14;98429.91;;;-0.14;98.41
26083;BME280;13848;49.018;12.078;2023-02-17T03:40:39;98430.59;;;-0.12;97.81
26083;BME280;13848;49.018;12.078;2023-02-17T03:43:05;98421.97;;;0.05;97.73
26083;BME280;13848;49.018;12.078;2023-02-17T03:45:34;98432.75;;;0.13;96.54
26083;BME280;13848;49.018;12.078;2023-02-17T03:48:00;98427.88;;;0.18;96.38
26083;BME280;13848;49.018;12.078;2023-02-17T03:50:26;98420.19;;;0.25;95.95
26083;BME280;13848;49.018;12.078;2023-02-17T03:52:54;98436.09;;;0.35;96.54
26083;BME280;13848;49.018;12.078;2023-02-17T03:55:20;98430.41;;;0.30;96.22
26083;BME280;13848;49.018;12.078;2023-02-17T03:57:45;98427.03;;;0.37;96.21
26083;BME280;13848;49.018;12.078;2023-02-17T04:00:13;98430.69;;;0.36;95.62
26083;BME280;13848;49.018;12.078;2023-02-17T04:02:39;98431.94;;;0.42;96.10
26083;BME280;13848;49.018;12.078;2023-02-17T04:05:06;98436.94;;;0.45;95.63
26083;BME280;13848;49.018;12.078;2023-02-17T04:07:32;98438.47;;;0.57;95.33
26083;BME280;13848;49.018;12.078;2023-02-17T04:09:59;98441.56;;;0.62;94.95
26083;BME280;13848;49.018;12.078;2023-02-17T04:12:25;98447.00;;;0.51;95.38
26083;BME280;13848;49.018;12.078;2023-02-17T04:14:52;98436.41;;;0.41;95.07
26083;BME280;13848;49.018;12.078;2023-02-17T04:17:18;98432.63;;;0.44;95.39
26083;BME280;13848;49.018;12.078;2023-02-17T04:19:44;98438.50;;;0.38;96.26
26083;BME280;13848;49.018;12.078;2023-02-17T04:22:10;98436.97;;;0.35;95.66
26083;BME280;13848;49.018;12.078;2023-02-17T04:24:36;98446.56;;;0.26;96.25
26083;BME280;13848;49.018;12.078;2023-02-17T04:27:03;98435.72;;;0.30;96.38
26083;BME280;13848;49.018;12.078;2023-02-17T04:29:29;98446.84;;;0.33;96.29
26083;BME280;13848;49.018;12.078;2023-02-17T04:31:55;98443.66;;;0.30;96.84
26083;BME280;13848;49.018;12.078;2023-02-17T04:34:21;98438.75;;;0.35;97.10
26083;BME280;13848;49.018;12.078;2023-02-17T04:36:47;98444.34;;;0.32;96.45
26083;BME280;13848;49.018;12.078;2023-02-17T04:39:13;98439.06;;;0.41;97.05
26083;BME280;13848;49.018;12.078;2023-02-17T04:41:39;98439.19;;;0.40;96.95
26083;BME280;13848;49.018;12.078;2023-02-17T04:44:06;98429.41;;;0.50;96.42
26083;BME280;13848;49.018;12.078;2023-02-17T04:46:32;98433.31;;;0.46;96.59
26083;BME280;13848;49.018;12.078;2023-02-17T04:48:58;98432.91;;;0.41;96.33
26083;BME280;13848;49.018;12.078;2023-02-17T04:51:24;98436.53;;;0.40;96.46
26083;BME280;13848;49.018;12.078;2023-02-17T04:53:50;98429.00;;;0.45;96.56
26083;BME280;13848;49.018;12.078;2023-02-17T04:56:16;98429.84;;;0.55;96.56
26083;BME280;13848;49.018;12.078;2023-02-17T04:58:42;98422.00;;;0.44;96.89
26083;BME280;13848;49.018;12.078;2023-02-17T05:01:09;98420.88;;;0.46;96.92
26083;BME280;13848;49.018;12.078;2023-02-17T05:03:35;98416.16;;;0.50;97.04
26083;BME280;13848;49.018;12.078;2023-02-17T05:06:01;98426.50;;;0.53;97.07
26083;BME280;13848;49.018;12.078;2023-02-17T05:08:27;98426.06;;;0.58;97.15
26083;BME280;13848;49.018;12.078;2023-02-17T05:10:53;98425.94;;;0.49;96.29
26083;BME280;13848;49.018;12.078;2023-02-17T05:13:19;98405.13;;;0.45;97.17
26083;BME280;13848;49.018;12.078;2023-02-17T05:15:46;98408.19;;;0.50;97.40
26083;BME280;13848;49.018;12.078;2023-02-17T05:18:13;98403.56;;;0.52;97.96
26083;BME280;13848;49.018;12.078;2023-02-17T05:20:39;98412.09;;;0.46;97.10
26083;BME280;13848;49.018;12.078;2023-02-17T05:23:06;98402.75;;;0.51;97.94
26083;BME280;13848;49.018;12.078;2023-02-17T05:25:31;98407.47;;;0.58;97.69
26083;BME280;13848;49.018;12.078;2023-02-17T05:27:57;98406.38;;;0.60;97.05
26083;BME280;13848;49.018;12.078;2023-02-17T05:30:23;98404.41;;;0.62;96.52
26083;BME280;13848;49.018;12.078;2023-02-17T05:32:49;98398.56;;;0.49;96.72
26083;BME280;13848;49.018;12.078;2023-02-17T05:35:17;98399.53;;;0.48;97.88
26083;BME280;13848;49.018;12.078;2023-02-17T05:37:42;98400.22;;;0.60;98.03
26083;BME280;13848;49.018;12.078;2023-02-17T05:40:09;98400.78;;;0.63;96.95
26083;BME280;13848;49.018;12.078;2023-02-17T05:42:35;98403.41;;;0.73;97.60
26083;BME280;13848;49.018;12.078;2023-02-17T05:45:03;98403.25;;;0.84;96.68
26083;BME280;13848;49.018;12.078;2023-02-17T05:47:29;98399.38;;;0.78;96.26
26083;BME280;13848;49.018;12.078;2023-02-17T05:49:54;98401.75;;;0.82;96.70
26083;BME280;13848;49.018;12.078;2023-02-17T05:52:22;98400.50;;;0.76;96.26
26083;BME280;13848;49.018;12.078;2023-02-17T05:54:48;98394.75;;;0.80;96.19
26083;BME280;13848;49.018;12.078;2023-02-17T05:57:13;98400.78;;;0.63;96.50
26083;BME280;13848;49.018;12.078;2023-02-17T05:59:39;98404.66;;;0.78;96.77
26083;BME280;13848;49.018;12.078;2023-02-17T06:02:05;98406.34;;;0.79;96.71
26083;BME280;13848;49.018;12.078;2023-02-17T06:04:32;98413.88;;;0.74;96.91
26083;BME280;13848;49.018;12.078;2023-02-17T06:06:58;98409.00;;;0.79;96.50
26083;BME280;13848;49.018;12.078;2023-02-17T06:09:25;98415.53;;;0.95;96.62
26083;BME280;13848;49.018;12.078;2023-02-17T06:11:51;98416.13;;;0.89;96.53
26083;BME280;13848;49.018;12.078;2023-02-17T06:14:17;98415.59;;;0.75;96.61
26083;BME280;13848;49.018;12.078;2023-02-17T06:16:43;98412.22;;;0.73;96.75
26083;BME280;13848;49.018;12.078;2023-02-17T06:19:09;98402.44;;;0.74;96.53
26083;BME280;13848;49.018;12.078;2023-02-17T06:21:35;98403.00;;;0.77;96.63
26083;BME280;13848;49.018;12.078;2023-02-17T06:24:01;98403.00;;;0.87;96.81
26083;BME280;13848;49.018;12.078;2023-02-17T06:26:29;98401.28;;;0.86;96.63
26083;BME280;13848;49.018;12.078;2023-02-17T06:28:55;98403.13;;;0.86;96.73
26083;BME280;13848;49.018;12.078;2023-02-17T06:31:21;98392.66;;;0.74;96.88
26083;BME280;13848;49.018;12.078;2023-02-17T06:33:47;98399.94;;;0.82;97.05
26083;BME280;13848;49.018;12.078;2023-02-17T06:36:13;98395.44;;;0.83;97.23
26083;BME280;13848;49.018;12.078;2023-02-17T06:38:39;98402.44;;;0.84;97.04
26083;BME280;13848;49.018;12.078;2023-02-17T06:41:05;98396.81;;;0.96;96.99
26083;BME280;13848;49.018;12.078;2023-02-17T06:43:33;98400.13;;;1.08;96.51
26083;BME280;13848;49.018;12.078;2023-02-17T06:46:00;98403.28;;;1.21;96.52
26083;BME280;13848;49.018;12.078;2023-02-17T06:48:26;98395.66;;;1.09;95.67
26083;BME280;13848;49.018;12.078;2023-02-17T06:50:52;98394.53;;;1.11;96.33
26083;BME280;13848;49.018;12.078;2023-02-17T06:53:17;98390.59;;;1.15;95.85
26083;BME280;13848;49.018;12.078;2023-02-17T06:55:46;98395.16;;;1.32;95.94
26083;BME280;13848;49.018;12.078;2023-02-17T06:58:12;98391.91;;;1.39;94.98
26083;BME280;13848;49.018;12.078;2023-02-17T07:00:39;98392.31;;;1.44;95.14
26083;BME280;13848;49.018;12.078;2023-02-17T07:03:05;98389.00;;;1.32;94.98
26083;BME280;13848;49.018;12.078;2023-02-17T07:05:33;98397.03;;;1.22;95.51
26083;BME280;13848;49.018;12.078;2023-02-17T07:08:00;98388.34;;;1.20;96.16
26083;BME280;13848;49.018;12.078;2023-02-17T07:10:26;98388.16;;;1.31;95.77
26083;BME280;13848;49.018;12.078;2023-02-17T07:12:54;98393.00;;;1.46;95.23
26083;BME280;13848;49.018;12.078;2023-02-17T07:15:20;98379.53;;;1.57;94.92
26083;BME280;13848;49.018;12.078;2023-02-17T07:17:47;98384.25;;;1.63;94.76
26083;BME280;13848;49.018;12.078;2023-02-17T07:20:13;98392.91;;;1.65;94.73
26083;BME280;13848;49.018;12.078;2023-02-17T07:22:39;98387.38;;;1.49;94.61
26083;BME280;13848;49.018;12.078;2023-02-17T07:25:06;98389.84;;;1.60;95.19
26083;BME280;13848;49.018;12.078;2023-02-17T07:27:34;98376.22;;;1.73;94.50
26083;BME280;13848;49.018;12.078;2023-02-17T07:30:00;98382.47;;;1.81;93.99
26083;BME280;13848;49.018;12.078;2023-02-17T07:32:26;98387.19;;;1.88;93.83
26083;BME280;13848;49.018;12.078;2023-02-17T07:34:53;98385.53;;;1.86;94.31
26083;BME280;13848;49.018;12.078;2023-02-17T07:37:19;98385.75;;;1.93;93.76
26083;BME280;13848;49.018;12.078;2023-02-17T07:39:45;98385.66;;;2.03;93.97
26083;BME280;13848;49.018;12.078;2023-02-17T07:42:11;98388.34;;;2.03;93.71
26083;BME280;13848;49.018;12.078;2023-02-17T07:44:38;98378.47;;;2.13;93.82
26083;BME280;13848;49.018;12.078;2023-02-17T07:47:04;98379.19;;;2.15;93.55
26083;BME280;13848;49.018;12.078;2023-02-17T07:49:29;98377.72;;;2.21;93.14
26083;BME280;13848;49.018;12.078;2023-02-17T07:51:57;98387.22;;;2.23;93.01
26083;BME280;13848;49.018;12.078;2023-02-17T07:54:23;98384.34;;;2.34;93.27
26083;BME280;13848;49.018;12.078;2023-02-17T07:56:49;98384.25;;;2.44;92.89
26083;BME280;13848;49.018;12.078;2023-02-17T07:59:15;98378.72;;;2.55;92.68
26083;BME280;13848;49.018;12.078;2023-02-17T08:01:41;98388.13;;;2.50;92.33
26083;BME280;13848;49.018;12.078;2023-02-17T08:04:07;98386.97;;;2.52;92.58
26083;BME280;13848;49.018;12.078;2023-02-17T08:06:33;98380.50;;;2.55;92.89
26083;BME280;13848;49.018;12.078;2023-02-17T08:09:00;98388.25;;;2.66;92.43
26083;BME280;13848;49.018;12.078;2023-02-17T08:11:26;98385.66;;;2.74;91.90
26083;BME280;13848;49.018;12.078;2023-02-17T08:13:52;98383.06;;;2.82;92.38
26083;BME280;13848;49.018;12.078;2023-02-17T08:16:18;98381.63;;;3.14;92.73
26083;BME280;13848;49.018;12.078;2023-02-17T08:18:44;98373.19;;;3.01;91.32
26083;BME280;13848;49.018;12.078;2023-02-17T08:21:10;98376.69;;;3.01;91.24
26083;BME280;13848;49.018;12.078;2023-02-17T08:23:36;98370.88;;;3.06;91.54
26083;BME280;13848;49.018;12.078;2023-02-17T08:26:03;98371.16;;;3.20;91.31
26083;BME280;13848;49.018;12.078;2023-02-17T08:28:30;98384.34;;;3.30;91.09
26083;BME280;13848;49.018;12.078;2023-02-17T08:30:56;98377.22;;;3.31;90.66
26083;BME280;13848;49.018;12.078;2023-02-17T08:33:22;98377.72;;;3.34;91.29
26083;BME280;13848;49.018;12.078;2023-02-17T08:35:47;98371.53;;;3.34;90.41
26083;BME280;13848;49.018;12.078;2023-02-17T08:38:13;98374.41;;;3.40;90.50
26083;BME280;13848;49.018;12.078;2023-02-17T08:40:39;98378.06;;;3.39;89.90
26083;BME280;13848;49.018;12.078;2023-02-17T08:43:07;98371.38;;;3.35;90.37
26083;BME280;13848;49.018;12.078;2023-02-17T08:45:34;98372.56;;;3.41;91.31
26083;BME280;13848;49.018;12.078;2023-02-17T08:48:00;98384.91;;;3.42;90.41
26083;BME280;13848;49.018;12.078;2023-02-17T08:50:26;98367.78;;;3.44;90.35
26083;BME280;13848;49.018;12.078;2023-02-17T08:52:52;98384.13;;;3.50;90.43
26083;BME280;13848;49.018;12.078;2023-02-17T08:55:18;98382.28;;;3.92;91.25
26083;BME280;13848;49.018;12.078;2023-02-17T08:57:44;98391.06;;;3.77;89.08
26083;BME280;13848;49.018;12.078;2023-02-17T09:00:13;98398.38;;;3.74;90.05
26083;BME280;13848;49.018;12.078;2023-02-17T09:02:39;98393.22;;;3.73;89.81
26083;BME280;13848;49.018;12.078;2023-02-17T09:05:05;98404.19;;;3.70;89.74
26083;BME280;13848;49.018;12.078;2023-02-17T09:07:31;98400.22;;;3.74;89.18
26083;BME280;13848;49.018;12.078;2023-02-17T09:09:58;98393.25;;;3.81;89.33
26083;BME280;13848;49.018;12.078;2023-02-17T09:12:24;98390.75;;;3.80;89.45
26083;BME280;13848;49.018;12.078;2023-02-17T09:14:49;98390.94;;;3.86;90.11
26083;BME280;13848;49.018;12.078;2023-02-17T09:17:17;98387.59;;;3.92;89.06
26083;BME280;13848;49.018;12.078;2023-02-17T09:19:43;98383.28;;;3.99;89.01
26083;BME280;13848;49.018;12.078;2023-02-17T09:22:09;98381.00;;;4.13;88.70
26083;BME280;13848;49.018;12.078;2023-02-17T09:24:35;98377.16;;;4.15;88.86
26083;BME280;13848;49.018;12.078;2023-02-17T09:27:01;98377.03;;;4.25;89.34
26083;BME280;13848;49.018;12.078;2023-02-17T09:29:28;98373.88;;;4.30;89.14
26083;BME280;13848;49.018;12.078;2023-02-17T09:31:54;98371.38;;;4.36;89.83
26083;BME280;13848;49.018;12.078;2023-02-17T09:34:21;98375.69;;;4.62;89.37
26083;BME280;13848;49.018;12.078;2023-02-17T09:36:47;98373.69;;;4.80;88.55
26083;BME280;13848;49.018;12.078;2023-02-17T09:39:13;98381.38;;;4.91;89.35
26083;BME280;13848;49.018;12.078;2023-02-17T09:41:42;98366.66;;;5.03;88.79
26083;BME280;13848;49.018;12.078;2023-02-17T09:44:16;98366.97;;;5.17;89.19
26083;BME280;13848;49.018;12.078;2023-02-17T09:46:48;98374.63;;;5.20;88.03
26083;BME280;13848;49.018;12.078;2023-02-17T09:49:21;98371.63;;;5.23;87.71
26083;BME280;13848;49.018;12.078;2023-02-17T09:51:54;98359.66;;;5.58;87.73
26083;BME280;13848;49.018;12.078;2023-02-17T09:54:27;98366.41;;;5.77;86.53
26083;BME280;13848;49.018;12.078;2023-02-17T09:56:58;98353.94;;;6.00;87.68
26083;BME280;13848;49.018;12.078;2023-02-17T09:59:31;98345.66;;;6.18;86.87
26083;BME280;13848;49.018;12.078;2023-02-17T10:02:05;98348.44;;;6.25;85.73
26083;BME280;13848;49.018;12.078;2023-02-17T10:04:36;98355.59;;;6.32;85.92
26083;BME280;13848;49.018;12.078;2023-02-17T10:07:07;98355.75;;;6.31;85.68
26083;BME280;13848;49.018;12.078;2023-02-17T10:09:39;98362.78;;;6.32;86.36
26083;BME280;13848;49.018;12.078;2023-02-17T10:12:08;98359.44;;;6.30;86.27
26083;BME280;13848;49.018;12.078;2023-02-17T10:14:39;98369.44;;;6.36;86.58
26083;BME280;13848;49.018;12.078;2023-02-17T10:17:09;98363.75;;;6.39;85.81
26083;BME280;13848;49.018;12.078;2023-02-17T10:19:45;98366.75;;;6.44;85.77
26083;BME280;13848;49.018;12.078;2023-02-17T10:22:17;98362.03;;;6.46;85.56
26083;BME280;13848;49.018;12.078;2023-02-17T10:24:43;98353.91;;;6.54;85.65
26083;BME280;13848;49.018;12.078;2023-02-17T10:27:24;98361.06;;;6.62;84.83
26083;BME280;13848;49.018;12.078;2023-02-17T10:30:03;98353.50;;;6.65;85.38
26083;BME280;13848;49.018;12.078;2023-02-17T10:32:37;98354.16;;;6.68;83.98
26083;BME280;13848;49.018;12.078;2023-02-17T10:35:14;98350.28;;;7.23;84.33
26083;BME280;13848;49.018;12.078;2023-02-17T10:37:46;98349.44;;;7.66;82.75
26083;BME280;13848;49.018;12.078;2023-02-17T10:40:17;98339.56;;;8.03;81.41
26083;BME280;13848;49.018;12.078;2023-02-17T10:42:44;98334.38;;;8.23;79.88
26083;BME280;13848;49.018;12.078;2023-02-17T10:45:17;98335.50;;;8.71;76.80
26083;BME280;13848;49.018;12.078;2023-02-17T10:47:44;98330.75;;;8.95;75.38
26083;BME280;13848;49.018;12.078;2023-02-17T10:50:18;98329.66;;;8.89;75.71
26083;BME280;13848;49.018;12.078;2023-02-17T10:52:44;98338.06;;;8.79;76.33
26083;BME280;13848;49.018;12.078;2023-02-17T10:55:18;98330.75;;;8.95;76.10
26083;BME280;13848;49.018;12.078;2023-02-17T10:57:48;98331.59;;;9.02;75.03
26083;BME280;13848;49.018;12.078;2023-02-17T11:00:18;98314.75;;;9.21;73.26
26083;BME280;13848;49.018;12.078;2023-02-17T11:02:45;98324.72;;;9.27;72.57
26083;BME280;13848;49.018;12.078;2023-02-17T11:05:22;98327.88;;;9.31;72.98
26083;BME280;13848;49.018;12.078;2023-02-17T11:07:54;98321.66;;;9.30;73.32
26083;BME280;13848;49.018;12.078;2023-02-17T11:10:22;98319.41;;;9.34;72.70
26083;BME280;13848;49.018;12.078;2023-02-17T11:12:50;98314.94;;;9.48;71.01
26083;BME280;13848;49.018;12.078;2023-02-17T11:15:18;98307.03;;;9.40;71.85
26083;BME280;13848;49.018;12.078;2023-02-17T11:17:45;98301.25;;;9.49;70.30
26083;BME280;13848;49.018;12.078;2023-02-17T11:20:31;98312.25;;;9.48;71.57
26083;BME280;13848;49.018;12.078;2023-02-17T11:23:20;98296.59;;;9.65;71.21
26083;BME280;13848;49.018;12.078;2023-02-17T11:25:55;98288.56;;;9.84;71.12
26083;BME280;13848;49.018;12.078;2023-02-17T11:28:24;98283.38;;;9.76;70.70
26083;BME280;13848;49.018;12.078;2023-02-17T11:30:52;98283.75;;;9.73;70.68
26083;BME280;13848;49.018;12.078;2023-02-17T11:33:21;98285.22;;;9.69;71.07
26083;BME280;13848;49.018;12.078;2023-02-17T11:35:51;98274.47;;;9.76;70.50
26083;BME280;13848;49.018;12.078;2023-02-17T11:38:20;98284.41;;;9.75;70.38
26083;BME280;13848;49.018;12.078;2023-02-17T11:40:55;98279.88;;;9.82;70.42
26083;BME280;13848;49.018;12.078;2023-02-17T11:43:22;98285.25;;;9.82;70.10
26083;BME280;13848;49.018;12.078;2023-02-17T11:45:54;98273.69;;;10.02;69.33
26083;BME280;13848;49.018;12.078;2023-02-17T11:51:31;98277.25;;;10.09;69.21
26083;BME280;13848;49.018;12.078;2023-02-17T11:54:07;98276.63;;;10.20;69.62
26083;BME280;13848;49.018;12.078;2023-02-17T11:56:40;98283.97;;;10.26;68.93
26083;BME280;13848;49.018;12.078;2023-02-17T11:59:25;98275.88;;;10.26;69.58
26083;BME280;13848;49.018;12.078;2023-02-17T12:02:13;98265.72;;;10.35;68.85
26083;BME280;13848;49.018;12.078;2023-02-17T12:04:48;98282.72;;;10.35;68.23
26083;BME280;13848;49.018;12.078;2023-02-17T12:07:35;98266.31;;;10.37;68.09
26083;BME280;13848;49.018;12.078;2023-02-17T12:10:08;98269.03;;;10.37;68.79
26083;BME280;13848;49.018;12.078;2023-02-17T12:12:50;98265.28;;;10.31;69.31
26083;BME280;13848;49.018;12.078;2023-02-17T12:15:42;98265.94;;;10.40;68.88
26083;BME280;13848;49.018;12.078;2023-02-17T12:18:23;98263.84;;;10.42;69.99
26083;BME280;13848;49.018;12.078;2023-02-17T12:21:01;98250.19;;;10.44;69.17
26083;BME280;13848;49.018;12.078;2023-02-17T12:26:34;98255.16;;;10.47;69.60
26083;BME280;13848;49.018;12.078;2023-02-17T12:29:08;98255.97;;;10.54;69.22
26083;BME280;13848;49.018;12.078;2023-02-17T12:32:08;98247.25;;;10.58;69.08
26083;BME280;13848;49.018;12.078;2023-02-17T12:34:38;98241.25;;;10.63;67.83
26083;BME280;13848;49.018;12.078;2023-02-17T12:37:15;98240.59;;;10.61;68.91
26083;BME280;13848;49.018;12.078;2023-02-17T12:39:47;98232.13;;;10.64;68.46
26083;BME280;13848;49.018;12.078;2023-02-17T12:42:18;98233.34;;;10.55;69.16
26083;BME280;13848;49.018;12.078;2023-02-17T12:44:49;98232.34;;;10.62;68.35
26083;BME280;13848;49.018;12.078;2023-02-17T12:47:21;98225.47;;;10.60;68.68
26083;BME280;13848;49.018;12.078;2023-02-17T12:49:52;98230.47;;;10.63;69.50
26083;BME280;13848;49.018;12.078;2023-02-17T12:52:24;98225.88;;;10.77;68.25
26083;BME280;13848;49.018;12.078;2023-02-17T12:54:55;98225.47;;;10.73;69.13
26083;BME280;13848;49.018;12.078;2023-02-17T12:57:24;98220.69;;;10.75;69.24
26083;BME280;13848;49.018;12.078;2023-02-17T12:59:52;98222.75;;;10.86;68.84
26083;BME280;13848;49.018;12.078;2023-02-17T13:02:20;98233.13;;;10.83;68.96
26083;BME280;13848;49.018;12.078;2023-02-17T13:04:49;98232.50;;;10.87;68.87
26083;BME280;13848;49.018;12.078;2023-02-17T13:07:30;98234.78;;;10.84;69.40
26083;BME280;13848;49.018;12.078;2023-02-17T13:10:00;98233.56;;;10.80;70.15
26083;BME280;13848;49.018;12.078;2023-02-17T13:12:36;98235.84;;;10.76;70.77